sensor_id;sensor_type;location;lat;lon;timestamp;P1;durP1;ratioP1;P2;durP2;ratioP2
74495;SDS011;62979;55.720;37.606;2023-06-14T00:00:15;8.73;;;3.40;;
74495;SDS011;62979;55.720;37.606;2023-06-14T00:02:43;10.43;;;3.72;;
74495;SDS011;62979;55.720;37.606;2023-06-14T00:05:10;11.05;;;4.25;;
74495;SDS011;62979;55.720;37.606;2023-06-14T00:07:38;9.40;;;3.80;;
74495;SDS011;62979;55.720;37.606;2023-06-14T00:10:10;7.75;;;3.17;;
74495;SDS011;62979;55.720;37.606;2023-06-14T00:12:38;7.95;;;4.15;;
74495;SDS011;62979;55.720;37.606;2023-06-14T00:15:06;6.85;;;3.55;;
74495;SDS011;62979;55.720;37.606;2023-06-14T00:17:35;6.68;;;3.63;;
74495;SDS011;62979;55.720;37.606;2023-06-14T00:20:04;7.28;;;3.35;;
74495;SDS011;62979;55.720;37.606;2023-06-14T00:22:33;6.25;;;3.25;;
74495;SDS011;62979;55.720;37.606;2023-06-14T00:25:01;8.20;;;3.50;;
74495;SDS011;62979;55.720;37.606;2023-06-14T00:29:57;8.13;;;3.03;;
74495;SDS011;62979;55.720;37.606;2023-06-14T00:32:24;7.10;;;3.35;;
74495;SDS011;62979;55.720;37.606;2023-06-14T00:34:52;8.80;;;3.42;;
74495;SDS011;62979;55.720;37.606;2023-06-14T00:37:19;4.82;;;3.00;;
74495;SDS011;62979;55.720;37.606;2023-06-14T00:39:46;5.40;;;3.03;;
74495;SDS011;62979;55.720;37.606;2023-06-14T00:42:22;7.18;;;3.00;;
74495;SDS011;62979;55.720;37.606;2023-06-14T00:44:52;6.32;;;3.47;;
74495;SDS011;62979;55.720;37.606;2023-06-14T00:47:19;8.20;;;3.17;;
74495;SDS011;62979;55.720;37.606;2023-06-14T00:49:47;6.70;;;3.35;;
74495;SDS011;62979;55.720;37.606;2023-06-14T00:52:16;10.95;;;3.13;;
74495;SDS011;62979;55.720;37.606;2023-06-14T00:57:11;9.43;;;3.30;;
74495;SDS011;62979;55.720;37.606;2023-06-14T00:59:42;7.65;;;3.50;;
74495;SDS011;62979;55.720;37.606;2023-06-14T01:02:13;6.82;;;3.42;;
74495;SDS011;62979;55.720;37.606;2023-06-14T01:04:42;7.95;;;3.40;;
74495;SDS011;62979;55.720;37.606;2023-06-14T01:07:15;6.68;;;2.83;;
74495;SDS011;62979;55.720;37.606;2023-06-14T01:09:58;6.18;;;3.33;;
74495;SDS011;62979;55.720;37.606;2023-06-14T01:12:48;7.15;;;3.33;;
74495;SDS011;62979;55.720;37.606;2023-06-14T01:15:25;9.35;;;3.75;;
74495;SDS011;62979;55.720;37.606;2023-06-14T01:17:55;5.90;;;3.20;;
74495;SDS011;62979;55.720;37.606;2023-06-14T01:20:28;7.30;;;3.15;;
74495;SDS011;62979;55.720;37.606;2023-06-14T01:22:59;8.00;;;3.10;;
74495;SDS011;62979;55.720;37.606;2023-06-14T01:25:27;5.63;;;3.03;;
74495;SDS011;62979;55.720;37.606;2023-06-14T01:27:55;6.88;;;3.33;;
74495;SDS011;62979;55.720;37.606;2023-06-14T01:30:29;10.10;;;3.47;;
74495;SDS011;62979;55.720;37.606;2023-06-14T01:32:58;8.80;;;3.45;;
74495;SDS011;62979;55.720;37.606;2023-06-14T01:35:25;10.88;;;4.45;;
74495;SDS011;62979;55.720;37.606;2023-06-14T01:37:53;5.55;;;3.42;;
74495;SDS011;62979;55.720;37.606;2023-06-14T01:40:22;6.68;;;3.25;;
74495;SDS011;62979;55.720;37.606;2023-06-14T01:42:51;6.95;;;4.28;;
74495;SDS011;62979;55.720;37.606;2023-06-14T01:45:19;6.72;;;3.58;;
74495;SDS011;62979;55.720;37.606;2023-06-14T01:47:48;7.00;;;3.83;;
74495;SDS011;62979;55.720;37.606;2023-06-14T01:50:18;5.43;;;3.70;;
74495;SDS011;62979;55.720;37.606;2023-06-14T01:52:46;8.27;;;4.35;;
74495;SDS011;62979;55.720;37.606;2023-06-14T01:55:13;8.25;;;3.80;;
74495;SDS011;62979;55.720;37.606;2023-06-14T01:57:44;10.73;;;3.58;;
74495;SDS011;62979;55.720;37.606;2023-06-14T02:00:11;9.38;;;3.53;;
74495;SDS011;62979;55.720;37.606;2023-06-14T02:02:41;7.68;;;3.72;;
74495;SDS011;62979;55.720;37.606;2023-06-14T02:05:08;8.00;;;3.90;;
74495;SDS011;62979;55.720;37.606;2023-06-14T02:07:35;6.43;;;3.53;;
74495;SDS011;62979;55.720;37.606;2023-06-14T02:10:02;8.43;;;3.72;;
74495;SDS011;62979;55.720;37.606;2023-06-14T02:14:58;9.30;;;3.60;;
74495;SDS011;62979;55.720;37.606;2023-06-14T02:17:25;6.45;;;3.60;;
74495;SDS011;62979;55.720;37.606;2023-06-14T02:19:52;6.95;;;4.30;;
74495;SDS011;62979;55.720;37.606;2023-06-14T02:22:20;7.15;;;3.95;;
74495;SDS011;62979;55.720;37.606;2023-06-14T02:24:48;6.53;;;4.15;;
74495;SDS011;62979;55.720;37.606;2023-06-14T02:27:15;9.00;;;4.68;;
74495;SDS011;62979;55.720;37.606;2023-06-14T02:29:42;8.40;;;4.50;;
74495;SDS011;62979;55.720;37.606;2023-06-14T02:32:11;14.07;;;4.60;;
74495;SDS011;62979;55.720;37.606;2023-06-14T02:34:38;6.15;;;4.40;;
74495;SDS011;62979;55.720;37.606;2023-06-14T02:37:06;10.27;;;5.03;;
74495;SDS011;62979;55.720;37.606;2023-06-14T02:39:33;9.48;;;5.50;;
74495;SDS011;62979;55.720;37.606;2023-06-14T02:42:01;10.85;;;5.38;;
74495;SDS011;62979;55.720;37.606;2023-06-14T02:44:29;10.82;;;5.03;;
74495;SDS011;62979;55.720;37.606;2023-06-14T02:46:57;9.60;;;4.93;;
74495;SDS011;62979;55.720;37.606;2023-06-14T02:49:27;10.52;;;4.93;;
74495;SDS011;62979;55.720;37.606;2023-06-14T02:51:54;11.95;;;5.15;;
74495;SDS011;62979;55.720;37.606;2023-06-14T02:54:21;9.02;;;5.20;;
74495;SDS011;62979;55.720;37.606;2023-06-14T02:56:48;9.00;;;5.03;;
74495;SDS011;62979;55.720;37.606;2023-06-14T02:59:16;10.95;;;4.53;;
74495;SDS011;62979;55.720;37.606;2023-06-14T03:01:44;8.15;;;4.82;;
74495;SDS011;62979;55.720;37.606;2023-06-14T03:04:11;9.63;;;5.35;;
74495;SDS011;62979;55.720;37.606;2023-06-14T03:06:39;13.25;;;5.88;;
74495;SDS011;62979;55.720;37.606;2023-06-14T03:09:09;8.45;;;4.47;;
74495;SDS011;62979;55.720;37.606;2023-06-14T03:11:36;11.88;;;5.57;;
74495;SDS011;62979;55.720;37.606;2023-06-14T03:14:03;10.45;;;5.40;;
74495;SDS011;62979;55.720;37.606;2023-06-14T03:16:32;8.05;;;4.95;;
74495;SDS011;62979;55.720;37.606;2023-06-14T03:18:59;10.10;;;5.50;;
74495;SDS011;62979;55.720;37.606;2023-06-14T03:21:26;13.68;;;5.45;;
74495;SDS011;62979;55.720;37.606;2023-06-14T03:26:21;10.30;;;5.25;;
74495;SDS011;62979;55.720;37.606;2023-06-14T03:28:48;9.60;;;5.07;;
74495;SDS011;62979;55.720;37.606;2023-06-14T03:31:15;11.57;;;5.40;;
74495;SDS011;62979;55.720;37.606;2023-06-14T03:33:42;10.80;;;5.47;;
74495;SDS011;62979;55.720;37.606;2023-06-14T03:36:09;11.82;;;5.30;;
74495;SDS011;62979;55.720;37.606;2023-06-14T03:38:36;9.77;;;5.75;;
74495;SDS011;62979;55.720;37.606;2023-06-14T03:41:04;12.80;;;5.68;;
74495;SDS011;62979;55.720;37.606;2023-06-14T03:43:31;12.93;;;5.55;;
74495;SDS011;62979;55.720;37.606;2023-06-14T03:45:58;9.43;;;6.70;;
74495;SDS011;62979;55.720;37.606;2023-06-14T03:48:25;11.73;;;6.60;;
74495;SDS011;62979;55.720;37.606;2023-06-14T03:50:52;12.13;;;6.97;;
74495;SDS011;62979;55.720;37.606;2023-06-14T03:53:20;15.52;;;7.95;;
74495;SDS011;62979;55.720;37.606;2023-06-14T03:55:48;12.85;;;7.65;;
74495;SDS011;62979;55.720;37.606;2023-06-14T03:58:18;13.38;;;7.90;;
74495;SDS011;62979;55.720;37.606;2023-06-14T04:00:46;11.15;;;7.07;;
74495;SDS011;62979;55.720;37.606;2023-06-14T04:03:13;12.80;;;6.55;;
74495;SDS011;62979;55.720;37.606;2023-06-14T04:05:40;10.43;;;7.30;;
74495;SDS011;62979;55.720;37.606;2023-06-14T04:08:08;11.25;;;6.40;;
74495;SDS011;62979;55.720;37.606;2023-06-14T04:10:35;12.15;;;6.55;;
74495;SDS011;62979;55.720;37.606;2023-06-14T04:13:02;10.25;;;5.63;;
74495;SDS011;62979;55.720;37.606;2023-06-14T04:17:57;9.75;;;5.70;;
74495;SDS011;62979;55.720;37.606;2023-06-14T04:20:24;11.23;;;6.75;;
74495;SDS011;62979;55.720;37.606;2023-06-14T04:22:51;12.60;;;6.43;;
74495;SDS011;62979;55.720;37.606;2023-06-14T04:25:22;11.30;;;6.55;;
74495;SDS011;62979;55.720;37.606;2023-06-14T04:27:51;11.10;;;5.82;;
74495;SDS011;62979;55.720;37.606;2023-06-14T04:30:18;14.52;;;6.55;;
74495;SDS011;62979;55.720;37.606;2023-06-14T04:32:47;11.55;;;6.45;;
74495;SDS011;62979;55.720;37.606;2023-06-14T04:35:18;13.57;;;6.95;;
74495;SDS011;62979;55.720;37.606;2023-06-14T04:37:45;12.50;;;7.63;;
74495;SDS011;62979;55.720;37.606;2023-06-14T04:40:12;13.55;;;6.78;;
74495;SDS011;62979;55.720;37.606;2023-06-14T04:42:39;12.55;;;8.27;;
74495;SDS011;62979;55.720;37.606;2023-06-14T04:45:09;16.33;;;8.20;;
74495;SDS011;62979;55.720;37.606;2023-06-14T04:47:38;16.70;;;9.18;;
74495;SDS011;62979;55.720;37.606;2023-06-14T04:52:35;10.77;;;6.07;;
74495;SDS011;62979;55.720;37.606;2023-06-14T04:55:02;19.67;;;7.32;;
74495;SDS011;62979;55.720;37.606;2023-06-14T04:57:29;14.45;;;5.85;;
74495;SDS011;62979;55.720;37.606;2023-06-14T04:59:57;13.75;;;6.25;;
74495;SDS011;62979;55.720;37.606;2023-06-14T05:02:26;11.73;;;4.35;;
74495;SDS011;62979;55.720;37.606;2023-06-14T05:04:55;14.00;;;5.30;;
74495;SDS011;62979;55.720;37.606;2023-06-14T05:07:24;11.18;;;5.70;;
74495;SDS011;62979;55.720;37.606;2023-06-14T05:09:51;15.40;;;5.10;;
74495;SDS011;62979;55.720;37.606;2023-06-14T05:12:17;13.90;;;5.22;;
74495;SDS011;62979;55.720;37.606;2023-06-14T05:14:45;8.77;;;5.20;;
74495;SDS011;62979;55.720;37.606;2023-06-14T05:17:12;11.88;;;4.70;;
74495;SDS011;62979;55.720;37.606;2023-06-14T05:19:39;17.40;;;10.88;;
74495;SDS011;62979;55.720;37.606;2023-06-14T05:22:06;13.40;;;6.22;;
74495;SDS011;62979;55.720;37.606;2023-06-14T05:24:34;13.15;;;4.85;;
74495;SDS011;62979;55.720;37.606;2023-06-14T05:27:01;9.50;;;4.32;;
74495;SDS011;62979;55.720;37.606;2023-06-14T05:29:28;13.75;;;6.63;;
74495;SDS011;62979;55.720;37.606;2023-06-14T05:31:55;13.10;;;5.88;;
74495;SDS011;62979;55.720;37.606;2023-06-14T05:34:22;10.88;;;4.90;;
74495;SDS011;62979;55.720;37.606;2023-06-14T05:36:48;12.07;;;4.18;;
74495;SDS011;62979;55.720;37.606;2023-06-14T05:39:15;7.75;;;4.18;;
74495;SDS011;62979;55.720;37.606;2023-06-14T05:41:44;6.25;;;3.25;;
74495;SDS011;62979;55.720;37.606;2023-06-14T05:44:10;8.27;;;3.60;;
74495;SDS011;62979;55.720;37.606;2023-06-14T05:46:37;8.23;;;4.13;;
74495;SDS011;62979;55.720;37.606;2023-06-14T05:51:31;9.77;;;2.63;;
74495;SDS011;62979;55.720;37.606;2023-06-14T05:53:58;7.85;;;2.90;;
74495;SDS011;62979;55.720;37.606;2023-06-14T05:56:26;7.80;;;2.95;;
74495;SDS011;62979;55.720;37.606;2023-06-14T05:58:54;7.03;;;2.95;;
74495;SDS011;62979;55.720;37.606;2023-06-14T06:01:21;7.25;;;3.20;;
74495;SDS011;62979;55.720;37.606;2023-06-14T06:03:48;5.88;;;2.38;;
74495;SDS011;62979;55.720;37.606;2023-06-14T06:06:15;8.05;;;2.50;;
74495;SDS011;62979;55.720;37.606;2023-06-14T06:08:42;6.63;;;2.72;;
74495;SDS011;62979;55.720;37.606;2023-06-14T06:11:09;7.38;;;2.30;;
74495;SDS011;62979;55.720;37.606;2023-06-14T06:16:07;4.30;;;2.22;;
74495;SDS011;62979;55.720;37.606;2023-06-14T06:18:34;3.28;;;1.92;;
74495;SDS011;62979;55.720;37.606;2023-06-14T06:23:29;8.15;;;2.08;;
74495;SDS011;62979;55.720;37.606;2023-06-14T06:25:56;4.75;;;1.52;;
74495;SDS011;62979;55.720;37.606;2023-06-14T06:28:23;4.88;;;2.60;;
74495;SDS011;62979;55.720;37.606;2023-06-14T06:30:50;6.03;;;2.15;;
74495;SDS011;62979;55.720;37.606;2023-06-14T06:33:18;5.85;;;2.08;;
74495;SDS011;62979;55.720;37.606;2023-06-14T06:35:45;3.13;;;1.65;;
74495;SDS011;62979;55.720;37.606;2023-06-14T06:38:12;3.25;;;1.52;;
74495;SDS011;62979;55.720;37.606;2023-06-14T06:40:39;4.90;;;1.60;;
74495;SDS011;62979;55.720;37.606;2023-06-14T06:43:06;5.07;;;1.33;;
74495;SDS011;62979;55.720;37.606;2023-06-14T06:45:33;6.70;;;1.70;;
74495;SDS011;62979;55.720;37.606;2023-06-14T06:47:59;5.20;;;2.30;;
74495;SDS011;62979;55.720;37.606;2023-06-14T06:50:28;5.38;;;1.88;;
74495;SDS011;62979;55.720;37.606;2023-06-14T06:52:55;4.65;;;1.70;;
74495;SDS011;62979;55.720;37.606;2023-06-14T06:55:22;3.53;;;1.95;;
74495;SDS011;62979;55.720;37.606;2023-06-14T06:57:49;5.28;;;2.17;;
74495;SDS011;62979;55.720;37.606;2023-06-14T07:00:17;9.98;;;2.22;;
74495;SDS011;62979;55.720;37.606;2023-06-14T07:02:45;2.60;;;1.40;;
74495;SDS011;62979;55.720;37.606;2023-06-14T07:05:12;4.00;;;1.95;;
74495;SDS011;62979;55.720;37.606;2023-06-14T07:07:41;11.20;;;2.00;;
74495;SDS011;62979;55.720;37.606;2023-06-14T07:10:08;5.68;;;2.05;;
74495;SDS011;62979;55.720;37.606;2023-06-14T07:12:35;6.65;;;1.70;;
74495;SDS011;62979;55.720;37.606;2023-06-14T07:15:05;6.68;;;2.17;;
74495;SDS011;62979;55.720;37.606;2023-06-14T07:17:33;5.75;;;2.28;;
74495;SDS011;62979;55.720;37.606;2023-06-14T07:20:01;5.25;;;1.80;;
74495;SDS011;62979;55.720;37.606;2023-06-14T07:22:33;5.10;;;1.77;;
74495;SDS011;62979;55.720;37.606;2023-06-14T07:25:01;6.50;;;3.40;;
74495;SDS011;62979;55.720;37.606;2023-06-14T07:27:29;5.18;;;2.17;;
74495;SDS011;62979;55.720;37.606;2023-06-14T07:29:56;3.08;;;1.45;;
74495;SDS011;62979;55.720;37.606;2023-06-14T07:32:22;4.90;;;1.60;;
74495;SDS011;62979;55.720;37.606;2023-06-14T07:34:49;3.20;;;1.40;;
74495;SDS011;62979;55.720;37.606;2023-06-14T07:37:16;2.70;;;1.80;;
74495;SDS011;62979;55.720;37.606;2023-06-14T07:39:43;3.58;;;2.05;;
74495;SDS011;62979;55.720;37.606;2023-06-14T07:42:13;3.30;;;1.80;;
74495;SDS011;62979;55.720;37.606;2023-06-14T07:44:40;4.40;;;2.10;;
74495;SDS011;62979;55.720;37.606;2023-06-14T07:47:07;4.10;;;1.63;;
74495;SDS011;62979;55.720;37.606;2023-06-14T07:49:34;4.00;;;2.28;;
74495;SDS011;62979;55.720;37.606;2023-06-14T07:52:01;6.07;;;1.60;;
74495;SDS011;62979;55.720;37.606;2023-06-14T07:54:27;3.83;;;1.92;;
74495;SDS011;62979;55.720;37.606;2023-06-14T07:59:23;7.20;;;2.22;;
74495;SDS011;62979;55.720;37.606;2023-06-14T08:01:50;2.85;;;1.63;;
74495;SDS011;62979;55.720;37.606;2023-06-14T08:04:17;5.03;;;2.28;;
74495;SDS011;62979;55.720;37.606;2023-06-14T08:06:44;3.85;;;2.28;;
74495;SDS011;62979;55.720;37.606;2023-06-14T08:09:13;3.78;;;2.17;;
74495;SDS011;62979;55.720;37.606;2023-06-14T08:11:41;6.25;;;2.10;;
74495;SDS011;62979;55.720;37.606;2023-06-14T08:14:08;4.38;;;2.05;;
74495;SDS011;62979;55.720;37.606;2023-06-14T08:16:36;4.80;;;2.10;;
74495;SDS011;62979;55.720;37.606;2023-06-14T08:19:03;5.45;;;2.42;;
74495;SDS011;62979;55.720;37.606;2023-06-14T08:21:30;6.57;;;3.00;;
74495;SDS011;62979;55.720;37.606;2023-06-14T08:23:58;5.32;;;2.05;;
74495;SDS011;62979;55.720;37.606;2023-06-14T08:26:25;2.58;;;1.35;;
74495;SDS011;62979;55.720;37.606;2023-06-14T08:28:54;2.03;;;1.60;;
74495;SDS011;62979;55.720;37.606;2023-06-14T08:31:21;4.82;;;1.45;;
74495;SDS011;62979;55.720;37.606;2023-06-14T08:33:50;5.00;;;2.25;;
74495;SDS011;62979;55.720;37.606;2023-06-14T08:36:17;4.00;;;1.80;;
74495;SDS011;62979;55.720;37.606;2023-06-14T08:38:44;4.63;;;1.70;;
74495;SDS011;62979;55.720;37.606;2023-06-14T08:41:11;3.05;;;1.80;;
74495;SDS011;62979;55.720;37.606;2023-06-14T08:43:45;4.93;;;2.75;;
74495;SDS011;62979;55.720;37.606;2023-06-14T08:46:13;5.72;;;1.92;;
74495;SDS011;62979;55.720;37.606;2023-06-14T08:48:45;4.95;;;2.50;;
74495;SDS011;62979;55.720;37.606;2023-06-14T08:51:16;7.32;;;1.80;;
74495;SDS011;62979;55.720;37.606;2023-06-14T08:53:47;2.83;;;2.40;;
74495;SDS011;62979;55.720;37.606;2023-06-14T08:56:23;2.78;;;2.13;;
74495;SDS011;62979;55.720;37.606;2023-06-14T09:01:19;8.52;;;2.95;;
74495;SDS011;62979;55.720;37.606;2023-06-14T09:03:48;4.55;;;2.28;;
74495;SDS011;62979;55.720;37.606;2023-06-14T09:06:17;6.10;;;1.65;;
74495;SDS011;62979;55.720;37.606;2023-06-14T09:08:48;2.55;;;1.52;;
74495;SDS011;62979;55.720;37.606;2023-06-14T09:13:44;5.15;;;2.47;;
74495;SDS011;62979;55.720;37.606;2023-06-14T09:16:12;4.10;;;1.98;;
74495;SDS011;62979;55.720;37.606;2023-06-14T09:18:39;4.13;;;1.83;;
74495;SDS011;62979;55.720;37.606;2023-06-14T09:21:09;3.25;;;2.10;;
74495;SDS011;62979;55.720;37.606;2023-06-14T09:23:39;3.53;;;2.15;;
74495;SDS011;62979;55.720;37.606;2023-06-14T09:26:08;3.42;;;1.65;;
74495;SDS011;62979;55.720;37.606;2023-06-14T09:28:37;5.43;;;2.25;;
74495;SDS011;62979;55.720;37.606;2023-06-14T09:31:09;3.47;;;1.48;;
74495;SDS011;62979;55.720;37.606;2023-06-14T09:33:38;3.03;;;1.95;;
74495;SDS011;62979;55.720;37.606;2023-06-14T09:36:13;6.13;;;1.98;;
74495;SDS011;62979;55.720;37.606;2023-06-14T09:38:48;4.03;;;1.95;;
74495;SDS011;62979;55.720;37.606;2023-06-14T09:41:18;5.38;;;2.65;;
74495;SDS011;62979;55.720;37.606;2023-06-14T09:43:46;2.20;;;1.73;;
74495;SDS011;62979;55.720;37.606;2023-06-14T09:46:14;3.35;;;2.55;;
74495;SDS011;62979;55.720;37.606;2023-06-14T09:48:42;5.35;;;2.67;;
74495;SDS011;62979;55.720;37.606;2023-06-14T09:51:10;2.53;;;2.20;;
74495;SDS011;62979;55.720;37.606;2023-06-14T09:56:13;3.63;;;2.42;;
74495;SDS011;62979;55.720;37.606;2023-06-14T09:58:47;3.13;;;1.60;;
74495;SDS011;62979;55.720;37.606;2023-06-14T10:01:20;4.85;;;2.58;;
74495;SDS011;62979;55.720;37.606;2023-06-14T10:03:50;2.72;;;2.33;;
74495;SDS011;62979;55.720;37.606;2023-06-14T10:06:22;6.53;;;2.33;;
74495;SDS011;62979;55.720;37.606;2023-06-14T10:08:52;8.65;;;3.10;;
74495;SDS011;62979;55.720;37.606;2023-06-14T10:11:26;4.20;;;2.97;;
74495;SDS011;62979;55.720;37.606;2023-06-14T10:13:54;4.82;;;2.42;;
74495;SDS011;62979;55.720;37.606;2023-06-14T10:16:23;4.07;;;2.67;;
74495;SDS011;62979;55.720;37.606;2023-06-14T10:19:00;7.03;;;3.50;;
74495;SDS011;62979;55.720;37.606;2023-06-14T10:21:39;9.73;;;3.55;;
74495;SDS011;62979;55.720;37.606;2023-06-14T10:24:24;4.95;;;2.20;;
74495;SDS011;62979;55.720;37.606;2023-06-14T10:27:00;4.53;;;2.83;;
74495;SDS011;62979;55.720;37.606;2023-06-14T10:29:27;7.00;;;3.50;;
74495;SDS011;62979;55.720;37.606;2023-06-14T10:31:57;4.47;;;2.58;;
74495;SDS011;62979;55.720;37.606;2023-06-14T10:34:26;3.75;;;3.45;;
74495;SDS011;62979;55.720;37.606;2023-06-14T10:37:00;5.82;;;3.35;;
74495;SDS011;62979;55.720;37.606;2023-06-14T10:39:31;4.53;;;2.65;;
74495;SDS011;62979;55.720;37.606;2023-06-14T10:42:06;3.72;;;2.75;;
74495;SDS011;62979;55.720;37.606;2023-06-14T10:44:44;4.93;;;3.03;;
74495;SDS011;62979;55.720;37.606;2023-06-14T10:47:26;5.80;;;3.05;;
74495;SDS011;62979;55.720;37.606;2023-06-14T10:49:55;3.88;;;2.67;;
74495;SDS011;62979;55.720;37.606;2023-06-14T10:52:29;3.38;;;3.08;;
74495;SDS011;62979;55.720;37.606;2023-06-14T10:57:39;5.28;;;3.30;;
74495;SDS011;62979;55.720;37.606;2023-06-14T11:00:09;4.93;;;3.35;;
74495;SDS011;62979;55.720;37.606;2023-06-14T11:02:46;3.03;;;2.70;;
74495;SDS011;62979;55.720;37.606;2023-06-14T11:05:50;3.58;;;3.30;;
74495;SDS011;62979;55.720;37.606;2023-06-14T11:11:29;3.63;;;3.33;;
74495;SDS011;62979;55.720;37.606;2023-06-14T11:14:01;4.35;;;2.88;;
74495;SDS011;62979;55.720;37.606;2023-06-14T11:16:28;3.65;;;3.40;;
74495;SDS011;62979;55.720;37.606;2023-06-14T11:18:57;3.83;;;3.22;;
74495;SDS011;62979;55.720;37.606;2023-06-14T11:21:24;5.25;;;3.28;;
74495;SDS011;62979;55.720;37.606;2023-06-14T11:23:56;3.47;;;3.17;;
74495;SDS011;62979;55.720;37.606;2023-06-14T11:26:26;3.90;;;2.97;;
74495;SDS011;62979;55.720;37.606;2023-06-14T11:28:55;4.22;;;3.83;;
74495;SDS011;62979;55.720;37.606;2023-06-14T11:31:25;3.88;;;3.58;;
74495;SDS011;62979;55.720;37.606;2023-06-14T11:33:53;3.53;;;2.83;;
74495;SDS011;62979;55.720;37.606;2023-06-14T11:36:22;6.18;;;4.20;;
74495;SDS011;62979;55.720;37.606;2023-06-14T11:38:49;4.63;;;3.45;;
74495;SDS011;62979;55.720;37.606;2023-06-14T11:41:16;4.25;;;3.05;;
74495;SDS011;62979;55.720;37.606;2023-06-14T11:43:43;3.42;;;3.13;;
74495;SDS011;62979;55.720;37.606;2023-06-14T11:46:13;4.18;;;3.80;;
74495;SDS011;62979;55.720;37.606;2023-06-14T11:48:44;4.43;;;4.00;;
74495;SDS011;62979;55.720;37.606;2023-06-14T11:51:11;5.40;;;3.42;;
74495;SDS011;62979;55.720;37.606;2023-06-14T11:53:38;3.85;;;3.45;;
74495;SDS011;62979;55.720;37.606;2023-06-14T11:56:05;3.20;;;3.00;;
74495;SDS011;62979;55.720;37.606;2023-06-14T11:58:33;3.13;;;2.75;;
74495;SDS011;62979;55.720;37.606;2023-06-14T12:01:00;4.57;;;3.55;;
74495;SDS011;62979;55.720;37.606;2023-06-14T12:03:30;6.28;;;3.42;;
74495;SDS011;62979;55.720;37.606;2023-06-14T12:06:08;4.20;;;3.30;;
74495;SDS011;62979;55.720;37.606;2023-06-14T12:08:35;3.78;;;3.25;;
74495;SDS011;62979;55.720;37.606;2023-06-14T12:11:05;4.65;;;4.00;;
74495;SDS011;62979;55.720;37.606;2023-06-14T12:13:34;3.65;;;2.90;;
74495;SDS011;62979;55.720;37.606;2023-06-14T12:16:06;5.35;;;3.78;;
74495;SDS011;62979;55.720;37.606;2023-06-14T12:18:34;4.68;;;3.63;;
74495;SDS011;62979;55.720;37.606;2023-06-14T12:21:03;4.80;;;3.17;;
74495;SDS011;62979;55.720;37.606;2023-06-14T12:23:45;5.47;;;3.15;;
74495;SDS011;62979;55.720;37.606;2023-06-14T12:26:14;6.28;;;3.47;;
74495;SDS011;62979;55.720;37.606;2023-06-14T12:28:43;3.38;;;3.17;;
74495;SDS011;62979;55.720;37.606;2023-06-14T12:31:12;3.58;;;3.28;;
74495;SDS011;62979;55.720;37.606;2023-06-14T12:33:41;4.65;;;4.25;;
74495;SDS011;62979;55.720;37.606;2023-06-14T12:36:10;3.75;;;3.38;;
74495;SDS011;62979;55.720;37.606;2023-06-14T12:38:38;4.40;;;2.78;;
74495;SDS011;62979;55.720;37.606;2023-06-14T12:41:06;5.07;;;2.65;;
74495;SDS011;62979;55.720;37.606;2023-06-14T12:43:33;3.83;;;3.53;;
74495;SDS011;62979;55.720;37.606;2023-06-14T12:46:00;7.60;;;4.40;;
74495;SDS011;62979;55.720;37.606;2023-06-14T12:48:27;2.83;;;2.63;;
74495;SDS011;62979;55.720;37.606;2023-06-14T12:50:56;3.33;;;3.13;;
74495;SDS011;62979;55.720;37.606;2023-06-14T12:53:23;3.85;;;3.33;;
74495;SDS011;62979;55.720;37.606;2023-06-14T12:55:50;3.10;;;2.85;;
74495;SDS011;62979;55.720;37.606;2023-06-14T12:58:18;3.70;;;3.28;;
74495;SDS011;62979;55.720;37.606;2023-06-14T13:00:45;5.40;;;3.55;;
74495;SDS011;62979;55.720;37.606;2023-06-14T13:03:12;3.10;;;2.80;;
74495;SDS011;62979;55.720;37.606;2023-06-14T13:05:39;5.93;;;3.13;;
74495;SDS011;62979;55.720;37.606;2023-06-14T13:08:08;5.65;;;3.17;;
74495;SDS011;62979;55.720;37.606;2023-06-14T13:10:35;3.58;;;3.28;;
74495;SDS011;62979;55.720;37.606;2023-06-14T13:13:02;4.55;;;2.78;;
74495;SDS011;62979;55.720;37.606;2023-06-14T13:15:30;5.20;;;3.55;;
74495;SDS011;62979;55.720;37.606;2023-06-14T13:17:57;4.10;;;3.80;;
74495;SDS011;62979;55.720;37.606;2023-06-14T13:20:24;3.38;;;3.15;;
74495;SDS011;62979;55.720;37.606;2023-06-14T13:22:51;5.03;;;2.92;;
74495;SDS011;62979;55.720;37.606;2023-06-14T13:25:18;4.55;;;2.50;;
74495;SDS011;62979;55.720;37.606;2023-06-14T13:27:45;3.67;;;3.38;;
74495;SDS011;62979;55.720;37.606;2023-06-14T13:30:12;5.00;;;2.97;;
74495;SDS011;62979;55.720;37.606;2023-06-14T13:32:41;3.25;;;2.65;;
74495;SDS011;62979;55.720;37.606;2023-06-14T13:35:08;4.05;;;2.88;;
74495;SDS011;62979;55.720;37.606;2023-06-14T13:37:35;3.55;;;2.90;;
74495;SDS011;62979;55.720;37.606;2023-06-14T13:40:02;5.03;;;4.07;;
74495;SDS011;62979;55.720;37.606;2023-06-14T13:42:30;4.45;;;3.85;;
74495;SDS011;62979;55.720;37.606;2023-06-14T13:44:58;3.05;;;2.75;;
74495;SDS011;62979;55.720;37.606;2023-06-14T13:47:25;5.97;;;3.17;;
74495;SDS011;62979;55.720;37.606;2023-06-14T13:49:53;4.18;;;3.70;;
74495;SDS011;62979;55.720;37.606;2023-06-14T13:52:20;3.70;;;3.20;;
74495;SDS011;62979;55.720;37.606;2023-06-14T13:54:47;4.72;;;4.18;;
74495;SDS011;62979;55.720;37.606;2023-06-14T13:57:14;4.97;;;2.97;;
74495;SDS011;62979;55.720;37.606;2023-06-14T13:59:42;2.70;;;2.50;;
74495;SDS011;62979;55.720;37.606;2023-06-14T14:02:10;4.65;;;3.60;;
74495;SDS011;62979;55.720;37.606;2023-06-14T14:04:38;3.20;;;3.00;;
74495;SDS011;62979;55.720;37.606;2023-06-14T14:07:07;3.55;;;2.97;;
74495;SDS011;62979;55.720;37.606;2023-06-14T14:09:34;4.97;;;2.38;;
74495;SDS011;62979;55.720;37.606;2023-06-14T14:12:02;2.85;;;2.55;;
74495;SDS011;62979;55.720;37.606;2023-06-14T14:14:31;3.38;;;2.58;;
74495;SDS011;62979;55.720;37.606;2023-06-14T14:16:59;4.25;;;3.33;;
74495;SDS011;62979;55.720;37.606;2023-06-14T14:19:26;3.55;;;3.35;;
74495;SDS011;62979;55.720;37.606;2023-06-14T14:21:53;4.15;;;3.58;;
74495;SDS011;62979;55.720;37.606;2023-06-14T14:24:21;5.95;;;2.95;;
74495;SDS011;62979;55.720;37.606;2023-06-14T14:26:48;4.20;;;3.15;;
74495;SDS011;62979;55.720;37.606;2023-06-14T14:29:17;4.43;;;4.13;;
74495;SDS011;62979;55.720;37.606;2023-06-14T14:31:44;3.65;;;2.75;;
74495;SDS011;62979;55.720;37.606;2023-06-14T14:34:11;4.25;;;3.90;;
74495;SDS011;62979;55.720;37.606;2023-06-14T14:36:38;3.50;;;3.22;;
74495;SDS011;62979;55.720;37.606;2023-06-14T14:39:07;3.50;;;3.20;;
74495;SDS011;62979;55.720;37.606;2023-06-14T14:41:35;5.03;;;3.17;;
74495;SDS011;62979;55.720;37.606;2023-06-14T14:44:03;6.88;;;2.78;;
74495;SDS011;62979;55.720;37.606;2023-06-14T14:46:31;3.78;;;2.55;;
74495;SDS011;62979;55.720;37.606;2023-06-14T14:48:58;2.92;;;2.70;;
74495;SDS011;62979;55.720;37.606;2023-06-14T14:51:25;4.00;;;2.95;;
74495;SDS011;62979;55.720;37.606;2023-06-14T14:53:52;4.35;;;3.88;;
74495;SDS011;62979;55.720;37.606;2023-06-14T14:56:19;3.40;;;3.05;;
74495;SDS011;62979;55.720;37.606;2023-06-14T14:58:47;3.95;;;3.00;;
74495;SDS011;62979;55.720;37.606;2023-06-14T15:01:14;3.15;;;2.92;;
74495;SDS011;62979;55.720;37.606;2023-06-14T15:03:42;4.25;;;3.92;;
74495;SDS011;62979;55.720;37.606;2023-06-14T15:06:09;3.78;;;3.38;;
74495;SDS011;62979;55.720;37.606;2023-06-14T15:08:35;5.55;;;3.25;;
74495;SDS011;62979;55.720;37.606;2023-06-14T15:11:02;3.15;;;2.85;;
74495;SDS011;62979;55.720;37.606;2023-06-14T15:13:29;2.67;;;2.40;;
74495;SDS011;62979;55.720;37.606;2023-06-14T15:15:57;8.55;;;2.47;;